Time;durP1;ratioP1;P1;durP2;ratioP2;P2;SDS_P1;SDS_P2;PMS_P1;PMS_P2;Temp;Humidity;BMP_temperature;BMP_pressure;BME280_temperature;BME280_humidity;BME280_pressure;Samples;Min_cycle;Max_cycle;Signal;HPM_P1;HPM_P2
2023/03/25 00:00:29;;;;;;;3.30;3.00;;;8.60;99.90;;;;;;5052416;28;20529;-51
2023/03/25 00:02:55;;;;;;;3.20;2.90;;;8.70;99.90;;;;;;5040087;28;20442;-51
2023/03/25 00:05:22;;;;;;;3.00;2.47;;;8.80;99.90;;;;;;5043003;28;20442;-51
2023/03/25 00:07:51;;;;;;;3.10;2.80;;;9.00;99.90;;;;;;5053471;28;20533;-51
2023/03/25 00:10:19;;;;;;;3.60;3.27;;;9.20;99.90;;;;;;5052544;28;20447;-51
2023/03/25 00:12:46;;;;;;;3.07;2.63;;;8.90;99.90;;;;;;5053548;28;20895;-51
2023/03/25 00:15:15;;;;;;;2.97;2.70;;;9.00;99.90;;;;;;5053844;28;20509;-52
2023/03/25 00:17:43;;;;;;;3.67;2.90;;;9.00;99.90;;;;;;5054013;28;20442;-51
2023/03/25 00:20:12;;;;;;;3.30;3.00;;;9.10;99.90;;;;;;5053705;28;20549;-51
2023/03/25 00:22:42;;;;;;;3.33;2.90;;;8.90;99.90;;;;;;5053892;28;20528;-51
2023/03/25 00:25:12;;;;;;;2.90;2.70;;;8.80;99.90;;;;;;5033601;28;20490;-52
2023/03/25 00:27:39;;;;;;;4.83;3.37;;;8.60;99.90;;;;;;5033967;28;20631;-51
2023/03/25 00:30:08;;;;;;;3.80;3.40;;;8.70;99.90;;;;;;5033361;28;20470;-50
2023/03/25 00:32:35;;;;;;;5.00;4.43;;;8.60;99.90;;;;;;5033293;28;20531;-50
2023/03/25 00:35:04;;;;;;;4.03;3.73;;;8.70;99.90;;;;;;5032588;28;20988;-51
2023/03/25 00:37:31;;;;;;;4.53;4.23;;;8.70;99.90;;;;;;5050909;28;20459;-51
2023/03/25 00:40:05;;;;;;;4.77;4.37;;;8.50;99.90;;;;;;5052724;28;20500;-54
2023/03/25 00:42:33;;;;;;;3.87;3.53;;;8.60;99.90;;;;;;5053061;28;20452;-52
2023/03/25 00:45:00;;;;;;;4.00;3.60;;;8.60;99.90;;;;;;5053453;28;20480;-51
2023/03/25 00:47:27;;;;;;;4.40;4.00;;;8.50;99.90;;;;;;5053257;28;20939;-53
2023/03/25 00:49:54;;;;;;;4.50;3.80;;;8.20;99.90;;;;;;5053276;28;20503;-53
2023/03/25 00:52:22;;;;;;;3.53;3.23;;;8.20;99.90;;;;;;5035044;28;20446;-52
2023/03/25 00:54:51;;;;;;;4.90;4.30;;;8.40;99.90;;;;;;5032816;28;20520;-53
2023/03/25 00:57:18;;;;;;;4.20;3.80;;;8.60;99.90;;;;;;5033464;28;20524;-51
2023/03/25 00:59:45;;;;;;;4.63;4.23;;;8.90;99.90;;;;;;5033337;28;20546;-51
2023/03/25 01:02:12;;;;;;;4.17;3.83;;;8.90;99.90;;;;;;5033505;28;20510;-51
2023/03/25 01:04:40;;;;;;;3.93;3.63;;;9.10;99.90;;;;;;5032894;28;20474;-50
2023/03/25 01:07:06;;;;;;;3.33;3.03;;;9.10;99.90;;;;;;5032881;28;20482;-51
2023/03/25 01:09:35;;;;;;;3.20;2.90;;;9.10;99.90;;;;;;5033300;28;20828;-52
2023/03/25 01:12:02;;;;;;;3.80;3.50;;;9.20;99.90;;;;;;5052666;28;20481;-50
2023/03/25 01:14:28;;;;;;;3.97;3.57;;;9.00;99.90;;;;;;5052985;28;20493;-51
2023/03/25 01:16:55;;;;;;;5.70;3.97;;;9.10;99.90;;;;;;5051687;28;20535;-51
2023/03/25 01:19:23;;;;;;;4.07;3.77;;;9.30;99.90;;;;;;5050712;28;20489;-50
2023/03/25 01:21:50;;;;;;;4.33;3.73;;;9.10;99.90;;;;;;5049345;28;21045;-51
2023/03/25 01:24:17;;;;;;;4.57;3.60;;;8.90;99.90;;;;;;5038769;28;20864;-51
2023/03/25 01:26:46;;;;;;;4.07;3.77;;;8.80;99.90;;;;;;5031166;28;20524;-51
2023/03/25 01:29:15;;;;;;;4.23;3.83;;;8.70;99.90;;;;;;5031066;28;20494;-51
2023/03/25 01:31:41;;;;;;;9.33;7.33;;;8.80;99.90;;;;;;5031325;28;20438;-51
2023/03/25 01:34:09;;;;;;;5.43;4.50;;;8.80;99.90;;;;;;5031925;28;20965;-52
2023/03/25 01:36:38;;;;;;;5.47;4.97;;;8.90;99.90;;;;;;5031784;28;20570;-51
2023/03/25 01:39:06;;;;;;;5.30;4.80;;;9.00;99.90;;;;;;5032034;28;20540;-51
2023/03/25 01:41:35;;;;;;;5.53;4.93;;;9.10;99.90;;;;;;5031891;28;20498;-51
2023/03/25 01:44:06;;;;;;;5.70;5.10;;;9.00;99.90;;;;;;5036461;28;20897;-51
2023/03/25 01:46:33;;;;;;;5.20;4.73;;;8.80;99.90;;;;;;5052052;28;20437;-51
2023/03/25 01:49:03;;;;;;;4.60;4.20;;;8.60;99.90;;;;;;5051461;28;21080;-52
2023/03/25 01:51:32;;;;;;;5.93;5.43;;;8.70;99.90;;;;;;5047812;28;20508;-51
2023/03/25 01:53:59;;;;;;;5.50;5.00;;;8.80;99.90;;;;;;5042210;28;20548;-51
2023/03/25 01:56:30;;;;;;;6.20;5.53;;;8.80;99.90;;;;;;5051592;28;20565;-51
2023/03/25 01:58:58;;;;;;;5.70;5.10;;;9.00;99.90;;;;;;5051807;28;20883;-51
2023/03/25 02:01:28;;;;;;;6.23;5.47;;;8.90;99.90;;;;;;5050586;28;20530;-50
2023/03/25 02:04:01;;;;;;;5.13;4.70;;;8.80;99.90;;;;;;5051047;28;20476;-51
2023/03/25 02:06:32;;;;;;;5.50;5.00;;;9.00;99.90;;;;;;5051153;28;20442;-51
2023/03/25 02:09:03;;;;;;;6.20;5.37;;;8.90;99.90;;;;;;5038699;28;20498;-51
2023/03/25 02:11:30;;;;;;;4.80;4.33;;;8.80;99.90;;;;;;5031719;28;20450;-51
2023/03/25 02:14:00;;;;;;;5.07;4.67;;;8.70;99.90;;;;;;5031679;28;20539;-51
2023/03/25 02:16:38;;;;;;;4.20;3.80;;;8.70;99.90;;;;;;5031115;28;21032;-51
2023/03/25 02:19:39;;;;;;;5.00;4.10;;;8.70;99.90;;;;;;5036762;28;20537;-51
2023/03/25 02:22:37;;;;;;;5.60;5.10;;;9.00;99.90;;;;;;5032628;28;20442;-50
2023/03/25 02:25:34;;;;;;;4.87;4.43;;;9.30;99.90;;;;;;5031758;28;20443;-50
2023/03/25 02:28:10;;;;;;;5.83;5.30;;;9.00;99.90;;;;;;5040564;28;20519;-50
2023/03/25 02:31:12;;;;;;;5.47;4.70;;;9.00;99.90;;;;;;5040004;28;20533;-51
2023/03/25 02:34:14;;;;;;;6.60;5.50;;;8.60;99.90;;;;;;5031351;28;20442;-51
2023/03/25 02:37:09;;;;;;;5.47;4.80;;;8.40;99.90;;;;;;5030637;28;20496;-50
2023/03/25 02:39:40;;;;;;;6.23;5.73;;;8.50;99.90;;;;;;5031131;28;20535;-52
2023/03/25 02:42:15;;;;;;;7.13;6.43;;;8.70;99.90;;;;;;5030940;28;20537;-50
2023/03/25 02:44:47;;;;;;;7.03;6.43;;;8.70;99.90;;;;;;5030886;28;20450;-50
2023/03/25 02:47:18;;;;;;;5.70;5.20;;;8.80;99.90;;;;;;5030959;28;20530;-50
2023/03/25 02:49:48;;;;;;;7.07;6.07;;;8.80;99.90;;;;;;5030903;28;21030;-50
2023/03/25 02:52:17;;;;;;;7.60;5.70;;;8.80;99.90;;;;;;5030895;28;20542;-50
2023/03/25 02:54:47;;;;;;;5.67;5.17;;;8.70;99.90;;;;;;5030910;28;20546;-50
2023/03/25 02:57:18;;;;;;;5.77;4.73;;;8.70;99.90;;;;;;5047167;28;20500;-51
2023/03/25 02:59:47;;;;;;;5.37;4.87;;;8.80;99.90;;;;;;5050374;28;20496;-50
2023/03/25 03:02:18;;;;;;;5.40;4.90;;;8.90;99.90;;;;;;5050236;28;20450;-50
2023/03/25 03:04:47;;;;;;;6.30;5.20;;;9.00;99.90;;;;;;5048946;28;20451;-50
2023/03/25 03:07:22;;;;;;;5.67;5.17;;;8.70;99.90;;;;;;5031131;28;20522;-51
2023/03/25 03:09:59;;;;;;;5.90;5.40;;;8.60;99.90;;;;;;5031104;28;20477;-50
2023/03/25 03:12:39;;;;;;;7.37;6.60;;;8.40;99.90;;;;;;5030874;28;20536;-51
2023/03/25 03:15:21;;;;;;;6.10;5.50;;;8.30;99.90;;;;;;5040646;28;20445;-53
2023/03/25 03:18:01;;;;;;;6.07;5.47;;;8.40;99.90;;;;;;5050348;28;20528;-50
2023/03/25 03:20:38;;;;;;;7.33;5.93;;;8.40;99.90;;;;;;5050041;28;20449;-52
2023/03/25 03:23:10;;;;;;;6.10;5.20;;;8.70;99.90;;;;;;5050330;28;20794;-52
2023/03/25 03:25:45;;;;;;;6.50;5.73;;;8.50;99.90;;;;;;5030911;28;20443;-52
2023/03/25 03:28:21;;;;;;;6.17;5.33;;;8.40;99.90;;;;;;5035224;28;20492;-53
2023/03/25 03:30:53;;;;;;;6.83;6.20;;;8.60;99.90;;;;;;5046972;28;20449;-52
2023/03/25 03:33:24;;;;;;;5.13;4.63;;;8.50;99.90;;;;;;5047442;28;20955;-52
2023/03/25 03:35:57;;;;;;;5.23;4.50;;;8.70;99.90;;;;;;5053867;28;20855;-52
2023/03/25 03:38:27;;;;;;;4.97;4.00;;;8.70;99.90;;;;;;5034416;28;20470;-50
2023/03/25 03:41:01;;;;;;;3.50;3.07;;;8.70;99.90;;;;;;5034712;28;20549;-54
2023/03/25 03:43:33;;;;;;;3.43;3.13;;;8.40;99.90;;;;;;5034094;28;20450;-52
2023/03/25 03:46:04;;;;;;;3.80;3.17;;;8.40;99.90;;;;;;5034927;28;20462;-50
2023/03/25 03:48:37;;;;;;;4.33;3.93;;;8.40;99.90;;;;;;5034814;28;20528;-51
2023/03/25 03:51:10;;;;;;;4.03;2.70;;;8.10;99.90;;;;;;5034374;28;20828;-50
2023/03/25 03:53:40;;;;;;;4.83;4.33;;;8.00;99.90;;;;;;5034118;28;20533;-52
2023/03/25 03:56:11;;;;;;;3.43;3.13;;;8.10;99.90;;;;;;5053989;28;20476;-50
2023/03/25 03:58:41;;;;;;;3.00;2.70;;;7.90;99.90;;;;;;5054142;28;20558;-51
2023/03/25 04:01:11;;;;;;;2.43;2.23;;;7.90;99.90;;;;;;5052508;28;20936;-53
2023/03/25 04:03:43;;;;;;;1.67;1.20;;;7.80;99.90;;;;;;5054071;28;21171;-52
2023/03/25 04:06:17;;;;;;;1.90;1.20;;;7.80;99.90;;;;;;5053999;28;20524;-53
2023/03/25 04:08:57;;;;;;;3.37;3.07;;;7.60;99.90;;;;;;5053813;28;20465;-52
2023/03/25 04:11:29;;;;;;;4.93;4.10;;;7.60;99.90;;;;;;5036298;28;20450;-54
2023/03/25 04:13:59;;;;;;;7.17;5.03;;;7.50;99.90;;;;;;5033701;28;20537;-54
2023/03/25 04:16:27;;;;;;;5.90;4.33;;;7.40;99.90;;;;;;5034395;28;20576;-52
2023/03/25 04:18:54;;;;;;;9.13;5.37;;;7.30;99.90;;;;;;5035094;28;20989;-51
2023/03/25 04:21:21;;;;;;;6.30;5.40;;;7.30;99.90;;;;;;5034536;28;20522;-53
2023/03/25 04:23:50;;;;;;;6.33;5.07;;;7.40;99.90;;;;;;5033392;28;20538;-52
2023/03/25 04:26:18;;;;;;;7.00;6.00;;;7.50;99.90;;;;;;5032406;28;20439;-52
2023/03/25 04:28:47;;;;;;;6.90;6.20;;;7.70;99.90;;;;;;5041179;28;20864;-52
2023/03/25 04:31:15;;;;;;;7.17;5.93;;;7.70;99.90;;;;;;5052946;28;20477;-52
2023/03/25 04:33:47;;;;;;;7.70;6.57;;;7.80;99.90;;;;;;5040756;28;20527;-52
2023/03/25 04:36:14;;;;;;;4.70;4.27;;;7.70;99.90;;;;;;5053654;28;20484;-52
2023/03/25 04:38:44;;;;;;;5.23;4.70;;;7.60;99.90;;;;;;5043337;28;20716;-54
2023/03/25 04:41:12;;;;;;;5.57;4.33;;;7.50;99.90;;;;;;5033467;28;20470;-51
2023/03/25 04:43:40;;;;;;;7.60;5.63;;;7.50;99.90;;;;;;5033299;28;20965;-53
2023/03/25 04:46:12;;;;;;;8.63;6.87;;;7.70;99.90;;;;;;5033617;28;20504;-55
2023/03/25 04:48:40;;;;;;;10.90;9.33;;;7.90;99.90;;;;;;5041667;28;20497;-53
2023/03/25 04:51:09;;;;;;;10.33;8.50;;;7.90;99.90;;;;;;5053832;28;20474;-51
2023/03/25 04:53:36;;;;;;;10.10;8.80;;;8.00;99.90;;;;;;5053203;28;20529;-54
2023/03/25 04:56:03;;;;;;;11.47;9.60;;;7.90;99.90;;;;;;5053092;28;20505;-52
2023/03/25 04:58:30;;;;;;;12.37;8.90;;;7.80;99.90;;;;;;5053180;28;20465;-53
2023/03/25 05:01:04;;;;;;;10.70;8.43;;;7.60;99.90;;;;;;5039168;28;20446;-52
2023/03/25 05:03:34;;;;;;;11.13;8.07;;;7.60;99.90;;;;;;5034326;28;20473;-51
2023/03/25 05:06:01;;;;;;;9.57;7.83;;;7.50;99.90;;;;;;5052510;28;20520;-51
2023/03/25 05:08:28;;;;;;;10.50;7.13;;;7.50;99.90;;;;;;5053053;28;20508;-52
2023/03/25 05:10:55;;;;;;;9.50;8.03;;;7.50;99.90;;;;;;5053428;28;20499;-51
2023/03/25 05:13:22;;;;;;;10.40;7.53;;;7.40;99.90;;;;;;5054310;28;20450;-52
2023/03/25 05:15:49;;;;;;;10.40;7.70;;;7.50;99.90;;;;;;5053568;28;20449;-51
2023/03/25 05:18:16;;;;;;;8.97;6.80;;;7.50;99.90;;;;;;5053345;28;20458;-51
2023/03/25 05:20:49;;;;;;;9.43;7.10;;;7.50;99.90;;;;;;5054841;28;20516;-53
2023/03/25 05:23:16;;;;;;;8.20;7.30;;;7.60;99.90;;;;;;5052504;28;20806;-52
2023/03/25 05:25:44;;;;;;;9.10;7.40;;;7.80;99.90;;;;;;5032555;28;20976;-53
2023/03/25 05:28:12;;;;;;;9.50;7.03;;;8.00;99.90;;;;;;5032466;28;20493;-52
2023/03/25 05:30:40;;;;;;;10.23;7.73;;;8.00;99.90;;;;;;5032644;28;20446;-52
2023/03/25 05:33:09;;;;;;;9.87;7.97;;;7.80;99.90;;;;;;5032481;28;20442;-52
2023/03/25 05:35:36;;;;;;;8.17;6.93;;;7.70;99.90;;;;;;5032761;28;20448;-54
2023/03/25 05:38:06;;;;;;;9.70;7.50;;;7.70;99.90;;;;;;5033126;28;21015;-52
2023/03/25 05:40:34;;;;;;;8.97;8.03;;;7.80;99.90;;;;;;5048029;28;20452;-51
2023/03/25 05:43:02;;;;;;;10.40;7.83;;;7.90;99.90;;;;;;5042789;28;20451;-52
2023/03/25 05:45:30;;;;;;;11.53;9.53;;;7.70;99.90;;;;;;5033443;28;20443;-53
2023/03/25 05:47:58;;;;;;;12.23;10.03;;;7.80;99.90;;;;;;5044151;28;20473;-53
2023/03/25 05:50:26;;;;;;;13.60;10.57;;;7.80;99.90;;;;;;5042227;28;20449;-53
2023/03/25 05:52:54;;;;;;;14.40;10.90;;;7.80;99.90;;;;;;5051036;28;20465;-51
2023/03/25 05:55:24;;;;;;;13.40;10.90;;;7.90;99.90;;;;;;5051865;28;20827;-53
2023/03/25 05:57:51;;;;;;;12.13;10.93;;;7.90;99.90;;;;;;5051759;28;20487;-52
2023/03/25 06:00:20;;;;;;;12.93;10.77;;;7.90;99.90;;;;;;5036578;28;20466;-53
2023/03/25 06:02:47;;;;;;;11.60;10.33;;;7.80;99.90;;;;;;5048711;28;20446;-52
2023/03/25 06:05:16;;;;;;;11.37;10.20;;;7.80;99.90;;;;;;5045843;28;20568;-51
2023/03/25 06:07:44;;;;;;;10.40;9.30;;;7.80;99.90;;;;;;5038149;28;20501;-52
2023/03/25 06:10:15;;;;;;;10.47;9.37;;;7.80;99.90;;;;;;5032612;28;20832;-53
2023/03/25 06:12:44;;;;;;;12.60;9.80;;;7.60;99.90;;;;;;5030686;28;20960;-53
2023/03/25 06:15:13;;;;;;;10.90;8.27;;;7.80;99.90;;;;;;5050174;28;20476;-52
2023/03/25 06:17:40;;;;;;;10.53;9.07;;;7.90;99.90;;;;;;5049538;28;20573;-53
2023/03/25 06:20:11;;;;;;;11.63;9.90;;;8.00;99.90;;;;;;5030080;28;20541;-53
2023/03/25 06:22:39;;;;;;;9.30;8.33;;;8.10;99.90;;;;;;5030189;28;20466;-52
2023/03/25 06:25:07;;;;;;;10.87;9.07;;;8.10;99.90;;;;;;5030951;28;20522;-54
2023/03/25 06:27:39;;;;;;;9.23;7.97;;;8.10;99.90;;;;;;5030373;28;20435;-51
2023/03/25 06:30:09;;;;;;;11.67;8.30;;;8.00;99.90;;;;;;5029552;28;20547;-54
2023/03/25 06:32:38;;;;;;;9.70;8.70;;;7.90;99.90;;;;;;5032175;28;20497;-52
2023/03/25 06:35:06;;;;;;;10.30;8.90;;;8.00;99.90;;;;;;5049292;28;20904;-53
2023/03/25 06:37:34;;;;;;;11.20;8.83;;;7.80;99.90;;;;;;5051025;28;20481;-51
2023/03/25 06:40:04;;;;;;;9.37;8.47;;;7.60;99.90;;;;;;5048824;28;20556;-55
2023/03/25 06:42:32;;;;;;;9.80;8.80;;;7.60;99.90;;;;;;5049579;28;20453;-55
2023/03/25 06:45:01;;;;;;;10.30;9.27;;;7.60;99.90;;;;;;5045833;28;20704;-52
2023/03/25 06:47:30;;;;;;;13.90;12.40;;;7.70;99.90;;;;;;5039920;28;20529;-53
2023/03/25 06:49:57;;;;;;;11.57;9.93;;;8.00;99.90;;;;;;5039570;28;20498;-53
2023/03/25 06:52:23;;;;;;;12.33;10.30;;;7.90;99.90;;;;;;5037876;28;20516;-53
2023/03/25 06:54:50;;;;;;;10.90;8.57;;;8.00;99.90;;;;;;5039708;28;20524;-52
2023/03/25 06:57:17;;;;;;;9.73;8.60;;;7.90;99.90;;;;;;5040641;28;20565;-53
2023/03/25 06:59:44;;;;;;;9.50;8.50;;;8.00;99.90;;;;;;5038135;28;20493;-51
2023/03/25 07:02:12;;;;;;;9.57;8.47;;;8.00;99.90;;;;;;5037232;28;20875;-53
2023/03/25 07:04:41;;;;;;;9.60;8.60;;;8.00;99.90;;;;;;5039373;28;20445;-52
2023/03/25 07:07:08;;;;;;;10.80;7.57;;;8.00;99.90;;;;;;5039835;28;20860;-54
2023/03/25 07:09:35;;;;;;;9.57;8.30;;;8.00;99.90;;;;;;5038677;28;20900;-53
2023/03/25 07:12:02;;;;;;;9.77;8.13;;;8.10;99.90;;;;;;5038620;28;20477;-53
2023/03/25 07:14:29;;;;;;;8.70;7.80;;;8.00;99.90;;;;;;5039200;28;20478;-52
2023/03/25 07:16:56;;;;;;;9.07;8.00;;;8.20;99.90;;;;;;5038698;28;20465;-54
2023/03/25 07:19:23;;;;;;;6.67;5.93;;;8.40;99.90;;;;;;5038304;28;20501;-50
2023/03/25 07:21:51;;;;;;;9.07;7.07;;;8.40;99.90;;;;;;5037330;28;20897;-52
2023/03/25 07:24:18;;;;;;;7.03;6.33;;;8.40;99.90;;;;;;5036492;28;20477;-52
2023/03/25 07:26:45;;;;;;;8.10;6.80;;;8.50;99.90;;;;;;5040183;28;20956;-50
2023/03/25 07:29:12;;;;;;;8.30;7.50;;;8.40;99.90;;;;;;5037991;28;20489;-50
2023/03/25 07:31:40;;;;;;;9.00;7.63;;;8.60;99.90;;;;;;5038722;28;20529;-52
2023/03/25 07:34:07;;;;;;;9.23;7.90;;;8.70;99.90;;;;;;5036443;28;20447;-50
2023/03/25 07:36:34;;;;;;;8.90;8.10;;;8.60;99.90;;;;;;5037745;28;20445;-50
2023/03/25 07:39:03;;;;;;;9.00;8.10;;;8.60;99.90;;;;;;5036345;28;20942;-50
2023/03/25 07:41:29;;;;;;;7.60;6.90;;;8.60;99.90;;;;;;5036321;28;20497;-53
2023/03/25 07:43:56;;;;;;;8.80;7.40;;;8.50;99.90;;;;;;5037412;28;21000;-51
2023/03/25 07:46:23;;;;;;;8.80;7.90;;;8.50;99.90;;;;;;5038082;28;20530;-53
2023/03/25 07:48:50;;;;;;;8.60;7.70;;;8.30;99.90;;;;;;5037670;28;20521;-53
2023/03/25 07:51:17;;;;;;;6.93;6.17;;;8.50;99.90;;;;;;5038419;28;20473;-53
2023/03/25 07:53:45;;;;;;;7.13;6.40;;;8.20;99.90;;;;;;5039468;28;20532;-52
2023/03/25 07:56:14;;;;;;;7.47;6.10;;;8.30;99.90;;;;;;5037815;28;20807;-54
2023/03/25 07:58:43;;;;;;;6.77;6.00;;;8.40;99.90;;;;;;5036289;28;20489;-51
2023/03/25 08:01:10;;;;;;;6.43;5.83;;;8.60;99.90;;;;;;5037796;28;20450;-50
2023/03/25 08:03:38;;;;;;;5.97;5.37;;;8.70;99.90;;;;;;5037522;28;20545;-52
2023/03/25 08:06:05;;;;;;;5.47;4.97;;;8.80;99.90;;;;;;5037004;28;20449;-51
2023/03/25 08:08:32;;;;;;;8.40;7.40;;;9.00;99.90;;;;;;5038430;28;20516;-51
2023/03/25 08:11:00;;;;;;;6.00;5.40;;;9.10;99.90;;;;;;5037507;28;20895;-52
2023/03/25 08:13:29;;;;;;;5.83;5.17;;;9.20;99.90;;;;;;5036980;28;20449;-51
2023/03/25 08:15:56;;;;;;;4.73;3.97;;;9.30;99.90;;;;;;5040208;28;20873;-50
2023/03/25 08:18:23;;;;;;;5.20;4.20;;;9.30;99.90;;;;;;5038369;28;20502;-51
2023/03/25 08:20:50;;;;;;;4.10;3.70;;;9.30;99.90;;;;;;5042778;28;20525;-50
2023/03/25 08:23:18;;;;;;;2.73;1.93;;;9.30;99.90;;;;;;5039652;28;20442;-51
2023/03/25 08:25:47;;;;;;;5.73;2.37;;;9.10;99.90;;;;;;5040902;28;20496;-50
2023/03/25 08:28:16;;;;;;;3.73;2.30;;;9.10;99.90;;;;;;5041210;28;20474;-53
2023/03/25 08:30:44;;;;;;;2.47;1.80;;;8.90;99.90;;;;;;5037269;28;20439;-53
2023/03/25 08:33:11;;;;;;;2.13;1.30;;;8.90;99.90;;;;;;5035815;28;20454;-50
2023/03/25 08:35:39;;;;;;;2.30;1.60;;;9.10;99.90;;;;;;5042117;28;20532;-50
2023/03/25 08:38:06;;;;;;;2.60;2.20;;;9.30;99.90;;;;;;5038083;28;20532;-50
2023/03/25 08:40:33;;;;;;;3.30;2.40;;;9.40;99.90;;;;;;5049441;28;20878;-50
2023/03/25 08:43:00;;;;;;;2.80;2.00;;;9.50;99.90;;;;;;5042087;28;20471;-51
2023/03/25 08:45:27;;;;;;;3.57;3.23;;;9.40;99.90;;;;;;5040068;28;20523;-52
2023/03/25 08:47:55;;;;;;;3.87;2.97;;;9.30;99.90;;;;;;5040091;28;20528;-52
2023/03/25 08:50:22;;;;;;;4.63;2.40;;;9.20;99.90;;;;;;5039685;28;20467;-52
2023/03/25 08:52:52;;;;;;;3.10;2.30;;;9.40;99.90;;;;;;5045153;28;20452;-52
2023/03/25 08:55:19;;;;;;;1.40;1.10;;;9.70;99.90;;;;;;5042681;28;20495;-50
2023/03/25 08:57:46;;;;;;;1.10;0.70;;;9.70;99.90;;;;;;5040707;28;20883;-50
2023/03/25 09:00:15;;;;;;;1.70;1.20;;;9.70;99.90;;;;;;5045564;28;20556;-50
2023/03/25 09:02:43;;;;;;;2.90;1.13;;;9.80;99.90;;;;;;5036151;28;20442;-50
2023/03/25 09:05:14;;;;;;;1.70;1.47;;;9.90;99.90;;;;;;5045699;28;20525;-51
2023/03/25 09:07:41;;;;;;;1.30;1.00;;;9.90;99.90;;;;;;5043905;28;20956;-50
2023/03/25 09:10:11;;;;;;;1.90;1.10;;;10.00;99.90;;;;;;5038875;28;20474;-50
2023/03/25 09:12:38;;;;;;;1.77;0.90;;;9.90;99.90;;;;;;5042827;28;20454;-50
2023/03/25 09:15:06;;;;;;;2.13;1.20;;;10.10;99.90;;;;;;5041779;28;20531;-50
2023/03/25 09:17:33;;;;;;;1.30;0.90;;;10.10;99.90;;;;;;5038765;28;20470;-50
2023/03/25 09:19:59;;;;;;;1.63;0.87;;;10.10;99.90;;;;;;5041607;28;20493;-50
2023/03/25 09:22:28;;;;;;;3.00;1.13;;;10.10;99.90;;;;;;5041327;28;20473;-50
2023/03/25 09:24:55;;;;;;;3.00;1.80;;;10.30;99.90;;;;;;5046667;28;20529;-51
2023/03/25 09:27:21;;;;;;;1.53;1.10;;;10.40;99.90;;;;;;5039284;28;20981;-50
2023/03/25 09:29:48;;;;;;;1.00;0.67;;;10.40;99.90;;;;;;5043338;28;20571;-50
2023/03/25 09:32:17;;;;;;;1.47;0.80;;;10.60;99.90;;;;;;5048661;28;20493;-50
2023/03/25 09:34:44;;;;;;;1.00;0.70;;;10.70;99.90;;;;;;5034023;28;20447;-50
2023/03/25 09:37:11;;;;;;;1.10;0.73;;;10.90;99.90;;;;;;5038932;28;20521;-50
2023/03/25 09:39:39;;;;;;;1.70;1.00;;;11.00;99.90;;;;;;5043885;28;21025;-50
2023/03/25 09:42:29;;;;;;;1.20;0.87;;;11.10;99.90;;;;;;5045618;28;20547;-51
2023/03/25 09:45:00;;;;;;;1.57;0.90;;;10.90;99.90;;;;;;5036848;28;20476;-50
2023/03/25 09:47:32;;;;;;;1.33;0.70;;;11.00;99.90;;;;;;5042406;28;20449;-50
2023/03/25 09:50:03;;;;;;;1.33;0.93;;;11.20;99.90;;;;;;5036315;28;20488;-49
2023/03/25 09:52:36;;;;;;;1.67;0.93;;;11.40;99.90;;;;;;5039255;28;20562;-50
2023/03/25 09:55:09;;;;;;;1.80;0.93;;;11.30;99.90;;;;;;5041346;28;20890;-51
2023/03/25 09:57:44;;;;;;;2.17;0.87;;;11.00;99.90;;;;;;5033161;28;20477;-51
2023/03/25 10:00:18;;;;;;;1.37;0.97;;;10.70;99.90;;;;;;5034210;28;20587;-50
2023/03/25 10:02:52;;;;;;;1.10;0.70;;;11.00;99.90;;;;;;5044108;28;20448;-50
2023/03/25 10:05:38;;;;;;;1.40;1.00;;;11.30;99.90;;;;;;5040322;28;20451;-51
2023/03/25 10:08:15;;;;;;;1.27;0.70;;;11.70;99.90;;;;;;5036763;28;21035;-51
2023/03/25 10:10:51;;;;;;;1.47;0.90;;;11.90;99.90;;;;;;5031182;28;21007;-50
2023/03/25 10:13:26;;;;;;;1.17;0.80;;;11.80;99.90;;;;;;5034256;28;20468;-50
2023/03/25 10:15:59;;;;;;;1.20;0.70;;;11.90;99.90;;;;;;5040513;28;20474;-51
2023/03/25 10:18:52;;;;;;;1.73;0.80;;;12.00;99.90;;;;;;5036035;28;20505;-50
2023/03/25 10:21:24;;;;;;;1.83;0.70;;;12.10;99.90;;;;;;5029196;28;20441;-50
2023/03/25 10:24:01;;;;;;;1.60;0.80;;;12.30;99.90;;;;;;5028147;28;20438;-51
2023/03/25 10:26:35;;;;;;;1.13;0.80;;;12.00;99.90;;;;;;5027691;28;20592;-50
2023/03/25 10:29:06;;;;;;;1.40;0.80;;;11.70;99.90;;;;;;5031641;28;20482;-50
2023/03/25 10:31:39;;;;;;;1.20;0.83;;;11.50;99.90;;;;;;5039384;28;20532;-51
2023/03/25 10:34:10;;;;;;;1.70;1.30;;;11.20;99.90;;;;;;5040214;28;20540;-49
2023/03/25 10:36:41;;;;;;;1.60;1.10;;;11.30;99.90;;;;;;5040229;28;20523;-50
2023/03/25 10:39:17;;;;;;;3.03;0.97;;;11.40;99.90;;;;;;5035678;28;20512;-50
2023/03/25 10:41:51;;;;;;;3.60;1.00;;;11.60;99.90;;;;;;5042859;28;20510;-52
2023/03/25 10:44:20;;;;;;;1.00;0.83;;;11.80;99.90;;;;;;5040527;28;20482;-51
2023/03/25 10:46:55;;;;;;;1.37;0.80;;;12.00;99.90;;;;;;5033885;28;20982;-51
2023/03/25 10:49:27;;;;;;;1.27;0.90;;;12.10;99.90;;;;;;5032257;28;20555;-52
2023/03/25 10:51:56;;;;;;;1.20;0.80;;;12.10;99.90;;;;;;5035416;28;20486;-51
2023/03/25 10:54:27;;;;;;;1.50;0.90;;;12.10;99.90;;;;;;5027561;28;20454;-51
2023/03/25 10:56:58;;;;;;;1.90;1.00;;;12.20;99.90;;;;;;5028274;28;20526;-52
2023/03/25 10:59:33;;;;;;;1.30;0.83;;;12.30;99.90;;;;;;5027130;28;20569;-51
2023/03/25 11:02:03;;;;;;;1.50;0.90;;;12.30;99.90;;;;;;5027928;28;20449;-50
2023/03/25 11:04:36;;;;;;;1.57;0.93;;;12.20;99.90;;;;;;5043540;28;20959;-50
2023/03/25 11:07:13;;;;;;;1.10;0.70;;;12.20;99.90;;;;;;5047868;28;20535;-50
2023/03/25 11:09:40;;;;;;;1.50;1.00;;;12.30;99.90;;;;;;5047372;28;20539;-52
2023/03/25 11:12:08;;;;;;;1.53;0.97;;;12.50;99.90;;;;;;5032349;28;20544;-50
2023/03/25 11:14:38;;;;;;;1.57;0.90;;;12.60;99.90;;;;;;5027950;28;20438;-50
2023/03/25 11:17:12;;;;;;;1.10;0.60;;;12.60;99.90;;;;;;5027911;28;20480;-51
2023/03/25 11:19:41;;;;;;;1.10;0.70;;;12.80;99.90;;;;;;5039099;28;21137;-50
2023/03/25 11:22:13;;;;;;;1.33;0.80;;;12.80;99.90;;;;;;5047208;28;20449;-52
2023/03/25 11:24:44;;;;;;;1.20;1.00;;;12.70;99.90;;;;;;5027344;28;20545;-50
2023/03/25 11:27:18;;;;;;;1.30;0.63;;;12.70;99.90;;;;;;5027569;28;20527;-51
2023/03/25 11:29:52;;;;;;;1.30;0.90;;;12.70;99.90;;;;;;5038928;28;20468;-51
2023/03/25 11:32:24;;;;;;;5.70;1.33;;;12.60;99.90;;;;;;5046612;28;20449;-52
2023/03/25 11:34:53;;;;;;;1.10;0.60;;;12.60;99.90;;;;;;5047439;28;20535;-51
2023/03/25 11:37:23;;;;;;;2.00;1.03;;;12.40;99.90;;;;;;5047420;28;20444;-51
2023/03/25 11:39:54;;;;;;;1.10;0.80;;;12.50;99.90;;;;;;5030177;28;20521;-51
2023/03/25 11:42:31;;;;;;;1.00;0.67;;;12.40;99.90;;;;;;5033422;28;20449;-50
2023/03/25 11:44:59;;;;;;;1.10;0.70;;;12.40;99.90;;;;;;5047456;28;20456;-50
2023/03/25 11:47:30;;;;;;;1.50;0.93;;;12.30;99.90;;;;;;5047788;28;20483;-51
2023/03/25 11:49:57;;;;;;;1.27;0.87;;;12.40;99.90;;;;;;5047677;28;20490;-50
2023/03/25 11:52:26;;;;;;;1.40;1.00;;;12.70;99.90;;;;;;5049794;28;20527;-51
2023/03/25 11:54:54;;;;;;;1.37;1.10;;;12.90;99.90;;;;;;5051344;28;20483;-51
2023/03/25 11:57:27;;;;;;;1.00;0.50;;;13.00;99.90;;;;;;5043138;28;20481;-50
2023/03/25 12:00:07;;;;;;;1.10;0.73;;;12.60;99.90;;;;;;5037473;28;20911;-50
2023/03/25 12:02:38;;;;;;;4.57;0.90;;;12.80;99.90;;;;;;5049991;28;20449;-53
2023/03/25 12:05:12;;;;;;;1.33;0.93;;;13.00;99.90;;;;;;5050771;28;20438;-51
2023/03/25 12:07:43;;;;;;;1.40;0.73;;;12.90;99.90;;;;;;5051562;28;20791;-51
2023/03/25 12:10:17;;;;;;;1.97;0.80;;;12.90;99.90;;;;;;5051006;28;20462;-51
2023/03/25 12:12:56;;;;;;;1.20;0.70;;;13.00;99.90;;;;;;5050789;28;20906;-51
2023/03/25 12:15:33;;;;;;;1.40;0.70;;;13.00;99.90;;;;;;5051093;28;20532;-51
2023/03/25 12:18:13;;;;;;;1.00;0.60;;;12.90;99.90;;;;;;5050147;28;20481;-51
2023/03/25 12:20:54;;;;;;;1.33;0.90;;;12.80;99.90;;;;;;5050809;28;20445;-50
2023/03/25 12:23:31;;;;;;;1.10;0.60;;;12.60;99.90;;;;;;5050122;28;20449;-51
2023/03/25 12:26:03;;;;;;;1.00;0.50;;;12.70;99.90;;;;;;5050757;28;20912;-52
2023/03/25 12:29:05;;;;;;;1.10;0.70;;;12.80;99.90;;;;;;5050908;28;20461;-51
2023/03/25 12:31:41;;;;;;;1.10;0.80;;;12.80;99.90;;;;;;5029878;28;20452;-49
2023/03/25 12:34:18;;;;;;;1.00;0.70;;;12.70;99.90;;;;;;5050777;28;20447;-51
2023/03/25 12:36:56;;;;;;;1.30;0.83;;;12.60;99.90;;;;;;5035703;28;20885;-51
2023/03/25 12:39:38;;;;;;;1.30;0.70;;;12.50;99.90;;;;;;5030610;28;20521;-52
2023/03/25 12:42:17;;;;;;;1.60;0.83;;;12.40;99.90;;;;;;5053210;23;20621;-52
2023/03/25 12:45:04;;;;;;;1.50;0.93;;;12.30;99.90;;;;;;5029391;28;21011;-51
2023/03/25 12:47:36;;;;;;;2.40;0.87;;;12.30;99.90;;;;;;5030883;28;20473;-50
2023/03/25 12:50:23;;;;;;;1.30;0.80;;;12.30;99.90;;;;;;5032838;28;20955;-50
2023/03/25 12:52:56;;;;;;;0.90;0.47;;;12.50;99.90;;;;;;5030051;28;20458;-51
2023/03/25 12:55:43;;;;;;;1.20;0.80;;;12.30;99.90;;;;;;5030778;28;20450;-51
2023/03/25 12:58:27;;;;;;;1.10;0.70;;;12.10;99.90;;;;;;5030663;28;20525;-49
2023/03/25 13:01:06;;;;;;;1.83;0.60;;;11.90;99.90;;;;;;5013276;28;20497;-49
2023/03/25 13:03:56;;;;;;;1.83;0.80;;;11.80;99.90;;;;;;5010253;28;20493;-49
2023/03/25 13:06:30;;;;;;;1.17;0.60;;;11.70;99.90;;;;;;5008508;28;20477;-50
2023/03/25 13:09:03;;;;;;;1.87;0.60;;;11.60;99.90;;;;;;5010849;28;20536;-51
2023/03/25 13:11:35;;;;;;;1.27;0.50;;;11.70;99.90;;;;;;5010576;28;20469;-49